Time;durP1;ratioP1;P1;durP2;ratioP2;P2;SDS_P1;SDS_P2;PMS_P1;PMS_P2;Temp;Humidity;BMP_temperature;BMP_pressure;BME280_temperature;BME280_humidity;BME280_pressure;Samples;Min_cycle;Max_cycle;Signal;HPM_P1;HPM_P2
2022/12/20 00:01:17;;;;;;;7.77;3.00;;;4.10;97.30;;;;;;4975835;28;20417;-85
2022/12/20 00:03:43;;;;;;;2.37;2.17;;;4.10;97.30;;;;;;4975800;28;20182;-83
2022/12/20 00:06:10;;;;;;;6.33;3.40;;;4.10;97.30;;;;;;4975198;28;20452;-85
2022/12/20 00:08:37;;;;;;;2.47;2.13;;;4.10;97.30;;;;;;4988834;28;20666;-84
2022/12/20 00:11:04;;;;;;;2.70;2.50;;;4.10;97.30;;;;;;4986191;28;20414;-85
2022/12/20 00:13:31;;;;;;;3.80;3.60;;;4.10;97.30;;;;;;4988664;28;20463;-82
2022/12/20 00:16:29;;;;;;;25.57;3.13;;;4.20;97.30;;;;;;4999813;28;20452;-82
2022/12/20 00:18:59;;;;;;;3.77;3.57;;;4.20;97.30;;;;;;4951011;28;20775;-85
2022/12/20 00:21:26;;;;;;;2.80;2.17;;;4.30;97.30;;;;;;4974379;28;20417;-85
2022/12/20 00:23:52;;;;;;;2.53;2.33;;;4.30;97.30;;;;;;4975634;28;20958;-83
2022/12/20 00:26:21;;;;;;;3.00;2.80;;;4.30;97.30;;;;;;4974604;28;20460;-83
2022/12/20 00:28:47;;;;;;;2.70;2.20;;;4.30;97.30;;;;;;4974885;28;20445;-85
2022/12/20 00:31:15;;;;;;;1.80;1.70;;;4.30;97.30;;;;;;4979082;28;20475;-86
2022/12/20 00:33:43;;;;;;;3.87;3.70;;;4.40;97.30;;;;;;4979090;28;20178;-87
2022/12/20 00:36:09;;;;;;;2.23;2.03;;;4.40;97.30;;;;;;4991480;28;20437;-87
2022/12/20 00:38:35;;;;;;;4.00;2.97;;;4.40;97.30;;;;;;4971459;28;20470;-85
2022/12/20 00:41:13;;;;;;;6.43;2.23;;;4.50;97.30;;;;;;4985075;28;20178;-85
2022/12/20 00:43:39;;;;;;;6.03;2.50;;;4.50;97.30;;;;;;4979342;28;20482;-85
2022/12/20 00:46:06;;;;;;;3.17;2.93;;;4.50;97.30;;;;;;4978236;28;20821;-82
2022/12/20 00:48:32;;;;;;;3.93;3.73;;;4.60;97.30;;;;;;4979086;28;20464;-87
2022/12/20 00:51:04;;;;;;;7.60;3.23;;;4.60;97.30;;;;;;4979269;28;20425;-85
2022/12/20 00:53:30;;;;;;;1.87;1.70;;;4.60;97.30;;;;;;4995070;28;20460;-86
2022/12/20 00:55:55;;;;;;;1.20;1.10;;;4.60;97.30;;;;;;4977450;28;20417;-85
2022/12/20 00:58:21;;;;;;;3.40;3.20;;;4.60;97.30;;;;;;4977824;28;20432;-85
2022/12/20 01:00:47;;;;;;;11.83;2.20;;;4.60;97.30;;;;;;4977612;28;20177;-84
2022/12/20 01:03:12;;;;;;;4.17;3.70;;;4.60;97.30;;;;;;4990884;28;20326;-83
2022/12/20 01:05:38;;;;;;;5.10;4.80;;;4.60;97.30;;;;;;4977339;28;20549;-86
2022/12/20 01:08:04;;;;;;;2.70;2.53;;;4.50;97.30;;;;;;4977429;28;20495;-82
2022/12/20 01:10:30;;;;;;;1.60;1.50;;;4.60;97.30;;;;;;4993298;28;20178;-84
2022/12/20 01:12:55;;;;;;;4.77;3.43;;;4.60;97.30;;;;;;4978029;28;20410;-87
2022/12/20 01:15:21;;;;;;;4.00;2.70;;;4.60;97.30;;;;;;4970148;28;20188;-87
2022/12/20 01:17:47;;;;;;;6.27;3.37;;;4.60;97.30;;;;;;4999013;28;20307;-88
2022/12/20 01:20:13;;;;;;;5.57;3.67;;;4.60;97.30;;;;;;4983902;28;20208;-88
2022/12/20 01:22:38;;;;;;;5.50;2.60;;;4.60;97.30;;;;;;4964791;28;20273;-87
2022/12/20 01:25:05;;;;;;;15.93;3.97;;;4.50;97.30;;;;;;4984317;28;20201;-87
2022/12/20 01:27:30;;;;;;;2.37;2.17;;;4.50;97.30;;;;;;4977962;28;20188;-87
2022/12/20 01:29:56;;;;;;;6.00;3.20;;;4.50;97.30;;;;;;4976587;28;20963;-87
2022/12/20 01:32:21;;;;;;;5.37;3.07;;;4.40;97.30;;;;;;4976101;28;20174;-87
2022/12/20 01:34:47;;;;;;;5.10;3.53;;;4.40;97.30;;;;;;4993486;28;20548;-87
2022/12/20 01:37:12;;;;;;;8.20;2.73;;;4.40;97.30;;;;;;4964011;28;20181;-87
2022/12/20 01:39:38;;;;;;;2.40;2.20;;;4.40;97.30;;;;;;4980772;28;20607;-87
2022/12/20 01:42:04;;;;;;;6.70;3.50;;;4.40;97.30;;;;;;4989811;28;20687;-87
2022/12/20 01:44:29;;;;;;;3.50;2.60;;;4.40;97.30;;;;;;4976220;28;20182;-87
2022/12/20 01:46:55;;;;;;;7.57;3.57;;;4.30;97.30;;;;;;5011544;28;20420;-87
2022/12/20 01:49:47;;;;;;;7.83;2.43;;;4.30;97.30;;;;;;4993309;28;20329;-86
2022/12/20 01:52:14;;;;;;;11.17;3.40;;;4.30;97.30;;;;;;4976369;28;20226;-87
2022/12/20 01:54:50;;;;;;;2.23;1.90;;;4.30;97.30;;;;;;4975906;28;20413;-87
2022/12/20 01:57:28;;;;;;;2.70;2.50;;;4.30;97.30;;;;;;4975430;28;20416;-87
2022/12/20 01:59:55;;;;;;;3.67;3.47;;;4.30;97.30;;;;;;4978783;28;20835;-87
2022/12/20 02:02:21;;;;;;;3.73;3.27;;;4.30;97.30;;;;;;4962378;28;20797;-88
2022/12/20 02:04:47;;;;;;;3.70;2.47;;;4.30;97.30;;;;;;4992297;28;20467;-87
2022/12/20 02:07:21;;;;;;;3.33;3.13;;;4.30;97.30;;;;;;4979309;28;20429;-87
2022/12/20 02:09:47;;;;;;;6.23;4.40;;;4.30;97.30;;;;;;5005836;28;20200;-87
2022/12/20 02:12:16;;;;;;;8.20;3.70;;;4.30;97.30;;;;;;4994917;28;20417;-87
2022/12/20 02:15:07;;;;;;;6.03;3.57;;;4.20;97.30;;;;;;4975409;28;20425;-87
2022/12/20 02:18:00;;;;;;;4.47;3.00;;;4.20;97.30;;;;;;4969073;28;20424;-87
2022/12/20 02:20:42;;;;;;;4.03;3.83;;;4.20;97.30;;;;;;4989895;28;20417;-87
2022/12/20 02:23:27;;;;;;;2.10;1.77;;;4.20;97.30;;;;;;4994167;28;20431;-87
2022/12/20 02:26:17;;;;;;;7.70;3.27;;;4.20;97.30;;;;;;4993164;28;20744;-87
2022/12/20 02:29:04;;;;;;;1.80;1.70;;;4.20;97.30;;;;;;4978404;28;20451;-87
2022/12/20 02:31:37;;;;;;;3.27;2.87;;;4.20;97.30;;;;;;4972870;28;20425;-87
2022/12/20 02:34:05;;;;;;;2.80;2.60;;;4.20;97.30;;;;;;4985090;28;20976;-87
2022/12/20 02:36:31;;;;;;;12.60;4.17;;;4.20;97.30;;;;;;4984370;28;20412;-88
2022/12/20 02:38:57;;;;;;;6.63;3.57;;;4.20;97.30;;;;;;4981162;28;20504;-87
2022/12/20 02:41:34;;;;;;;2.07;1.93;;;4.30;97.30;;;;;;4984157;28;20224;-88
2022/12/20 02:46:55;;;;;;;3.37;2.90;;;4.30;97.30;;;;;;4984536;28;20417;-88
2022/12/20 02:49:26;;;;;;;3.20;2.70;;;4.30;97.30;;;;;;4981678;28;20922;-86
2022/12/20 02:51:55;;;;;;;2.40;1.83;;;4.30;97.30;;;;;;4987369;28;20428;-88
2022/12/20 02:54:21;;;;;;;13.33;5.73;;;4.30;97.30;;;;;;4974887;28;20428;-88
2022/12/20 02:56:54;;;;;;;5.53;4.47;;;4.20;97.30;;;;;;4974662;28;20417;-88
2022/12/20 02:59:42;;;;;;;10.03;3.83;;;4.20;97.30;;;;;;4974970;28;20451;-88
2022/12/20 03:02:09;;;;;;;2.90;2.67;;;4.10;97.30;;;;;;4974305;28;20504;-89
2022/12/20 03:04:38;;;;;;;2.90;2.50;;;4.10;97.30;;;;;;4975934;28;20432;-88
2022/12/20 03:07:09;;;;;;;3.77;3.07;;;4.10;97.30;;;;;;4984831;28;20456;-88
2022/12/20 03:09:37;;;;;;;3.87;2.80;;;4.10;97.30;;;;;;4974031;28;20841;-88
2022/12/20 03:12:02;;;;;;;2.00;1.80;;;4.00;97.30;;;;;;4975813;28;20428;-88
2022/12/20 03:14:28;;;;;;;1.87;1.77;;;4.00;97.30;;;;;;4974258;28;20885;-88
2022/12/20 03:16:54;;;;;;;13.83;4.13;;;4.00;97.30;;;;;;4973815;28;20636;-88
2022/12/20 03:19:20;;;;;;;6.97;4.50;;;4.00;97.30;;;;;;4991424;28;20194;-88
2022/12/20 03:21:45;;;;;;;2.47;1.80;;;4.00;97.30;;;;;;4991514;28;20174;-87
2022/12/20 03:24:12;;;;;;;1.97;1.90;;;4.00;97.30;;;;;;4975621;28;20425;-87
2022/12/20 03:26:39;;;;;;;2.70;2.50;;;4.00;97.30;;;;;;4986658;28;20276;-87
2022/12/20 03:29:05;;;;;;;1.63;1.57;;;3.90;97.30;;;;;;4987512;28;20468;-87
2022/12/20 03:31:31;;;;;;;3.30;2.33;;;3.90;97.30;;;;;;4987942;28;20453;-88
2022/12/20 03:33:57;;;;;;;2.27;2.07;;;3.90;97.30;;;;;;4986795;28;20448;-87
2022/12/20 03:36:23;;;;;;;3.00;2.80;;;3.90;97.30;;;;;;4987595;28;20519;-87
2022/12/20 03:38:50;;;;;;;5.83;3.67;;;3.90;97.30;;;;;;4983777;28;20209;-87
2022/12/20 03:41:15;;;;;;;4.83;3.10;;;3.90;97.30;;;;;;4974632;28;20429;-87
2022/12/20 03:43:41;;;;;;;4.00;3.80;;;3.90;97.30;;;;;;4974273;28;20923;-86
2022/12/20 03:46:06;;;;;;;5.10;3.07;;;3.90;97.30;;;;;;4957621;28;20202;-87
2022/12/20 03:48:32;;;;;;;6.13;4.17;;;4.00;97.30;;;;;;4955659;28;20222;-87
2022/12/20 03:50:58;;;;;;;3.23;2.53;;;4.00;97.30;;;;;;4989267;28;20269;-87
2022/12/20 03:53:23;;;;;;;5.67;3.53;;;4.00;97.30;;;;;;4974680;28;20174;-87
2022/12/20 03:55:49;;;;;;;6.93;3.47;;;4.00;97.30;;;;;;4972446;28;20205;-87
2022/12/20 03:58:14;;;;;;;3.23;2.80;;;4.00;97.30;;;;;;4976278;28;20535;-87
2022/12/20 04:00:40;;;;;;;4.00;2.90;;;4.00;97.30;;;;;;4974994;28;20691;-87
2022/12/20 04:03:05;;;;;;;2.47;2.27;;;4.10;97.30;;;;;;4990411;28;20193;-87
2022/12/20 04:05:31;;;;;;;7.23;5.30;;;4.10;97.30;;;;;;4995149;28;20209;-87
2022/12/20 04:07:56;;;;;;;4.90;2.20;;;4.10;97.30;;;;;;4977945;28;20186;-87
2022/12/20 04:10:22;;;;;;;6.57;2.47;;;4.10;97.30;;;;;;4991115;28;20201;-87
2022/12/20 04:12:47;;;;;;;4.50;3.37;;;4.10;97.30;;;;;;4978646;28;20652;-87
2022/12/20 04:15:13;;;;;;;2.60;2.40;;;4.20;97.30;;;;;;4977918;28;20193;-87
2022/12/20 04:17:38;;;;;;;9.63;5.30;;;4.20;97.30;;;;;;4975749;28;20178;-86
2022/12/20 04:20:17;;;;;;;9.83;3.93;;;4.20;97.30;;;;;;4964667;28;20209;-87
2022/12/20 04:22:44;;;;;;;2.60;1.70;;;4.20;97.30;;;;;;4965068;28;20186;-88
2022/12/20 04:25:10;;;;;;;5.20;3.50;;;4.20;97.30;;;;;;4976636;28;20567;-87
2022/12/20 04:27:35;;;;;;;5.77;3.40;;;4.20;97.30;;;;;;4975720;28;20500;-87
2022/12/20 04:30:01;;;;;;;8.53;4.87;;;4.20;97.30;;;;;;4970982;28;20285;-87
2022/12/20 04:32:26;;;;;;;11.50;5.90;;;4.30;97.30;;;;;;4970020;28;20208;-88
2022/12/20 04:34:52;;;;;;;4.37;3.20;;;4.30;97.30;;;;;;4981561;28;20630;-87
2022/12/20 04:37:17;;;;;;;4.87;2.80;;;4.30;97.30;;;;;;4985380;28;20244;-87
2022/12/20 04:39:43;;;;;;;5.97;3.00;;;4.40;97.30;;;;;;4973291;28;20198;-88
2022/12/20 04:42:08;;;;;;;5.47;3.80;;;4.40;97.30;;;;;;4988219;28;20782;-88
2022/12/20 04:44:34;;;;;;;6.23;3.27;;;4.40;97.30;;;;;;5012499;28;20660;-87
2022/12/20 04:46:59;;;;;;;6.60;5.60;;;4.40;97.30;;;;;;4995309;28;20240;-88
2022/12/20 04:49:25;;;;;;;9.80;5.33;;;4.40;97.30;;;;;;4987521;28;20275;-87
2022/12/20 04:51:50;;;;;;;5.10;3.40;;;4.40;97.30;;;;;;4983275;28;20208;-87
2022/12/20 04:54:16;;;;;;;3.60;2.60;;;4.40;97.30;;;;;;4985878;28;20174;-87
2022/12/20 04:56:41;;;;;;;13.50;4.80;;;4.40;97.30;;;;;;4992185;28;20183;-87
2022/12/20 04:59:07;;;;;;;6.10;4.20;;;4.40;97.30;;;;;;4978777;28;20668;-88
2022/12/20 05:01:33;;;;;;;2.73;2.53;;;4.40;97.30;;;;;;4994361;28;20181;-88
2022/12/20 05:03:58;;;;;;;5.47;3.20;;;4.50;97.30;;;;;;4986535;28;20493;-88
2022/12/20 05:06:24;;;;;;;4.23;2.83;;;4.50;97.30;;;;;;4999274;28;20288;-88
2022/12/20 05:08:49;;;;;;;4.70;4.40;;;4.50;97.30;;;;;;4988193;28;20590;-88
2022/12/20 05:11:15;;;;;;;3.30;2.53;;;4.50;97.30;;;;;;4987071;28;20195;-88
2022/12/20 05:13:41;;;;;;;3.33;3.13;;;4.50;97.30;;;;;;4989558;28;20170;-88
2022/12/20 05:16:07;;;;;;;3.57;2.40;;;4.50;97.30;;;;;;4983890;28;20228;-88
2022/12/20 05:18:32;;;;;;;5.90;3.77;;;4.60;97.30;;;;;;4997137;28;20615;-88
2022/12/20 05:26:31;;;;;;;3.37;3.17;;;4.60;97.30;;;;;;4999439;28;20646;-88
2022/12/20 05:28:56;;;;;;;17.13;2.73;;;4.70;97.30;;;;;;5007421;28;20471;-88
2022/12/20 05:31:22;;;;;;;11.57;3.97;;;4.70;97.30;;;;;;4987542;28;20441;-88
2022/12/20 05:33:48;;;;;;;5.03;4.73;;;4.70;97.30;;;;;;4988634;28;20557;-87
2022/12/20 05:36:13;;;;;;;2.80;1.63;;;4.70;97.30;;;;;;4986863;28;20193;-87
2022/12/20 05:38:39;;;;;;;7.60;6.40;;;4.80;97.30;;;;;;4981213;28;20197;-88
2022/12/20 05:41:05;;;;;;;4.60;4.30;;;4.80;97.30;;;;;;4986253;28;20188;-88
2022/12/20 05:43:31;;;;;;;4.40;3.60;;;4.90;97.30;;;;;;4986615;28;20640;-88
2022/12/20 05:45:56;;;;;;;4.13;2.80;;;4.90;97.30;;;;;;4984834;28;20472;-88
2022/12/20 05:48:22;;;;;;;3.83;3.70;;;4.90;97.30;;;;;;4987783;28;20432;-88
2022/12/20 05:50:48;;;;;;;4.63;3.13;;;4.90;97.30;;;;;;5011058;23;20240;-90
2022/12/20 05:53:15;;;;;;;7.83;3.27;;;4.90;97.30;;;;;;4973339;28;20572;-90
2022/12/20 05:55:47;;;;;;;9.20;4.17;;;5.00;97.30;;;;;;4975268;28;20653;-89
2022/12/20 05:58:13;;;;;;;6.83;2.80;;;5.00;97.30;;;;;;4973871;28;20780;-89
2022/12/20 06:00:41;;;;;;;1.83;1.73;;;5.00;97.30;;;;;;4974466;28;20475;-89
2022/12/20 06:03:09;;;;;;;5.73;2.70;;;5.00;97.30;;;;;;4973971;28;20452;-90
2022/12/20 06:05:38;;;;;;;4.90;4.13;;;5.00;97.30;;;;;;4962572;28;20469;-89
2022/12/20 06:08:05;;;;;;;4.47;3.27;;;5.10;97.30;;;;;;4970537;28;20584;-90
2022/12/20 06:10:31;;;;;;;3.67;2.93;;;5.10;97.30;;;;;;4975066;28;20429;-89
2022/12/20 06:12:57;;;;;;;8.03;3.93;;;5.10;97.30;;;;;;4968499;28;20786;-90
2022/12/20 06:15:22;;;;;;;4.37;3.50;;;5.10;97.30;;;;;;4975452;28;20432;-90
2022/12/20 06:17:48;;;;;;;3.97;3.77;;;5.10;97.30;;;;;;4990395;28;20770;-90
2022/12/20 06:20:13;;;;;;;3.70;3.37;;;5.10;97.30;;;;;;4971704;28;20197;-88
2022/12/20 06:22:39;;;;;;;6.10;4.97;;;5.20;97.30;;;;;;4961795;28;20300;-90
2022/12/20 06:25:08;;;;;;;4.27;3.33;;;5.20;97.30;;;;;;4972800;28;20336;-89
2022/12/20 06:27:34;;;;;;;5.00;3.97;;;5.20;97.30;;;;;;4967076;28;20182;-90
2022/12/20 06:29:59;;;;;;;7.00;3.73;;;5.20;97.30;;;;;;4971633;28;21090;-89
2022/12/20 06:32:25;;;;;;;2.83;2.63;;;5.20;97.30;;;;;;4964388;28;20631;-90
2022/12/20 06:34:51;;;;;;;5.57;2.80;;;5.20;97.30;;;;;;4970851;28;20186;-90
2022/12/20 06:37:16;;;;;;;4.47;3.37;;;5.20;97.30;;;;;;4974052;28;20182;-90
2022/12/20 06:39:42;;;;;;;3.53;2.87;;;5.20;97.30;;;;;;4974191;28;20261;-90
2022/12/20 06:42:07;;;;;;;6.70;3.77;;;5.30;97.30;;;;;;4975217;28;20194;-90
2022/12/20 06:44:33;;;;;;;5.03;3.03;;;5.30;97.30;;;;;;4974633;28;20426;-91
2022/12/20 06:46:58;;;;;;;4.50;4.20;;;5.30;97.30;;;;;;4974445;28;20217;-91
2022/12/20 06:49:24;;;;;;;3.70;2.30;;;5.30;97.30;;;;;;4975042;28;20641;-90
2022/12/20 06:51:49;;;;;;;3.43;2.80;;;5.40;97.30;;;;;;4975004;28;20280;-90
2022/12/20 06:54:15;;;;;;;3.90;2.50;;;5.40;97.30;;;;;;4981163;28;20194;-90
2022/12/20 06:56:40;;;;;;;4.73;3.40;;;5.40;97.30;;;;;;4972499;28;20248;-90
2022/12/20 06:59:06;;;;;;;6.20;3.73;;;5.40;97.30;;;;;;4974010;28;20667;-90
2022/12/20 07:01:31;;;;;;;2.63;2.40;;;5.30;97.30;;;;;;4973669;28;20575;-90
2022/12/20 07:03:58;;;;;;;2.30;1.77;;;5.30;97.30;;;;;;4961348;28;20693;-90
2022/12/20 07:06:23;;;;;;;4.60;4.17;;;5.30;97.30;;;;;;4973468;28;20773;-90
2022/12/20 07:08:49;;;;;;;3.57;3.43;;;5.30;97.30;;;;;;4973793;28;20544;-90
2022/12/20 07:11:14;;;;;;;2.10;2.00;;;5.30;97.30;;;;;;4968252;28;20197;-90
2022/12/20 07:13:40;;;;;;;4.40;4.03;;;5.30;97.30;;;;;;4968765;28;20182;-91
2022/12/20 07:16:06;;;;;;;4.87;3.37;;;5.30;97.30;;;;;;4967886;28;20183;-90
2022/12/20 07:18:34;;;;;;;13.10;4.07;;;5.30;97.30;;;;;;4969078;28;20193;-90
2022/12/20 07:21:00;;;;;;;8.83;2.60;;;5.30;97.30;;;;;;4968068;28;20209;-89
2022/12/20 07:23:26;;;;;;;7.37;4.20;;;5.30;97.30;;;;;;4957812;28;20620;-90
2022/12/20 07:25:56;;;;;;;6.53;3.77;;;5.30;97.30;;;;;;4974702;28;20473;-90
2022/12/20 07:28:23;;;;;;;3.53;3.23;;;5.30;97.30;;;;;;4968716;28;20182;-90
2022/12/20 07:30:49;;;;;;;5.70;2.87;;;5.30;97.30;;;;;;4965846;28;20994;-90
2022/12/20 07:33:14;;;;;;;8.33;4.70;;;5.30;97.30;;;;;;4981140;28;20414;-90
2022/12/20 07:35:40;;;;;;;3.90;2.73;;;5.30;97.30;;;;;;4972649;28;20209;-91
2022/12/20 07:38:06;;;;;;;4.47;3.33;;;5.40;97.30;;;;;;4974154;28;20229;-90
2022/12/20 07:40:32;;;;;;;4.40;3.50;;;5.40;97.30;;;;;;4992591;28;20193;-90
2022/12/20 07:42:57;;;;;;;2.97;1.93;;;5.40;97.30;;;;;;4968874;28;20512;-91
2022/12/20 07:45:23;;;;;;;2.60;1.80;;;5.40;97.30;;;;;;4956700;28;20665;-90
2022/12/20 07:47:48;;;;;;;3.00;2.80;;;5.50;97.30;;;;;;4975114;28;20392;-91
2022/12/20 07:50:14;;;;;;;2.43;2.23;;;5.50;97.30;;;;;;4975505;28;20185;-90
2022/12/20 07:52:43;;;;;;;5.87;3.30;;;5.50;97.30;;;;;;4968530;28;20237;-91
2022/12/20 07:55:10;;;;;;;3.60;3.40;;;5.60;97.30;;;;;;4969240;28;20591;-90
2022/12/20 07:57:50;;;;;;;6.43;4.97;;;5.60;97.30;;;;;;4975365;28;20421;-90
2022/12/20 08:00:17;;;;;;;5.27;3.30;;;5.60;97.30;;;;;;4964091;28;20425;-90
2022/12/20 08:03:01;;;;;;;5.07;4.17;;;5.70;97.30;;;;;;4970477;28;20432;-91
2022/12/20 08:05:27;;;;;;;3.83;2.30;;;5.70;97.30;;;;;;4966992;28;20938;-90
2022/12/20 08:07:55;;;;;;;3.47;3.33;;;5.70;97.30;;;;;;4973211;28;20413;-91
2022/12/20 08:10:20;;;;;;;5.77;3.00;;;5.80;97.30;;;;;;4968701;28;20421;-91
2022/12/20 08:12:47;;;;;;;7.77;4.90;;;5.80;97.30;;;;;;4984024;28;21014;-91
2022/12/20 08:15:14;;;;;;;3.13;2.93;;;6.00;97.30;;;;;;4973079;28;20557;-90
2022/12/20 08:17:39;;;;;;;7.43;3.00;;;6.00;97.30;;;;;;4973154;28;20939;-90
2022/12/20 08:20:07;;;;;;;6.17;5.23;;;6.00;97.30;;;;;;4971667;28;20431;-90
2022/12/20 08:22:33;;;;;;;2.70;2.17;;;5.90;97.30;;;;;;4983756;28;20687;-91
2022/12/20 08:24:58;;;;;;;3.80;3.20;;;5.90;97.30;;;;;;4957656;28;20734;-92
2022/12/20 08:27:24;;;;;;;3.20;3.00;;;5.90;97.30;;;;;;4987235;28;20692;-91
2022/12/20 08:29:49;;;;;;;1.53;1.20;;;5.90;97.30;;;;;;4961779;28;20414;-90
2022/12/20 08:32:15;;;;;;;12.33;3.63;;;5.80;97.30;;;;;;4966445;28;20257;-89
2022/12/20 08:34:41;;;;;;;2.23;2.03;;;5.80;97.30;;;;;;4966111;28;20181;-90
2022/12/20 08:37:07;;;;;;;4.97;4.20;;;5.80;97.30;;;;;;4975246;28;20268;-89
2022/12/20 08:39:32;;;;;;;6.37;4.40;;;5.80;97.30;;;;;;4974347;28;20185;-90
2022/12/20 08:41:58;;;;;;;2.70;2.53;;;5.80;97.30;;;;;;4992553;28;20202;-88
2022/12/20 08:44:24;;;;;;;6.83;4.23;;;5.80;97.30;;;;;;4968831;28;20179;-90
2022/12/20 08:46:50;;;;;;;10.13;4.67;;;5.80;97.30;;;;;;4958979;28;20322;-86
2022/12/20 08:49:16;;;;;;;4.20;3.57;;;5.80;97.30;;;;;;4987492;28;20432;-89
2022/12/20 08:51:41;;;;;;;7.50;2.60;;;5.80;97.30;;;;;;4966723;28;20473;-90
2022/12/20 08:54:07;;;;;;;3.47;2.70;;;5.80;97.30;;;;;;4965887;28;20179;-89
2022/12/20 08:56:33;;;;;;;2.33;2.13;;;5.80;97.30;;;;;;4969452;28;20194;-90
2022/12/20 08:58:58;;;;;;;5.93;4.53;;;5.80;97.30;;;;;;4976843;28;20188;-89
2022/12/20 09:01:25;;;;;;;2.90;2.70;;;5.80;97.30;;;;;;4993919;28;20448;-89
2022/12/20 09:03:51;;;;;;;1.47;1.37;;;5.80;97.30;;;;;;4964079;28;20191;-90
2022/12/20 09:06:19;;;;;;;5.17;3.73;;;5.80;97.30;;;;;;4974699;28;20460;-89
2022/12/20 09:08:45;;;;;;;3.67;3.40;;;5.80;97.30;;;;;;4966059;28;20669;-89
2022/12/20 09:11:17;;;;;;;3.40;2.53;;;5.80;97.30;;;;;;4975399;28;20445;-89
2022/12/20 09:13:45;;;;;;;4.03;3.33;;;5.70;97.30;;;;;;4957517;28;20461;-89
2022/12/20 09:16:13;;;;;;;4.70;3.57;;;5.70;97.30;;;;;;4957019;28;20948;-88
2022/12/20 09:18:39;;;;;;;5.27;3.17;;;5.70;97.30;;;;;;4973900;28;20871;-87
2022/12/20 09:21:06;;;;;;;5.03;3.43;;;5.70;97.30;;;;;;4971505;28;20437;-89
2022/12/20 09:23:33;;;;;;;5.43;3.40;;;5.70;97.30;;;;;;4967197;28;20197;-90
2022/12/20 09:26:04;;;;;;;5.60;3.37;;;5.70;97.30;;;;;;4969247;28;20493;-90
2022/12/20 09:28:31;;;;;;;6.10;3.10;;;5.70;97.30;;;;;;4980880;28;20575;-90
2022/12/20 09:30:58;;;;;;;6.00;4.10;;;5.80;97.30;;;;;;4949049;28;20445;-88
2022/12/20 09:33:23;;;;;;;4.63;3.93;;;5.80;97.30;;;;;;4967660;28;20802;-91
2022/12/20 09:35:49;;;;;;;5.07;2.70;;;5.80;97.30;;;;;;4969409;28;20451;-89
2022/12/20 09:38:15;;;;;;;2.53;2.40;;;5.80;97.30;;;;;;4975190;28;20182;-90
2022/12/20 09:40:46;;;;;;;2.37;2.23;;;5.90;97.30;;;;;;4989610;28;20213;-88
2022/12/20 09:43:13;;;;;;;6.77;3.50;;;5.90;97.30;;;;;;4971383;28;20272;-89
2022/12/20 09:45:39;;;;;;;4.37;3.17;;;5.90;97.30;;;;;;4975814;28;20833;-91
2022/12/20 09:48:12;;;;;;;10.43;3.67;;;6.00;97.30;;;;;;4976121;28;20512;-89
2022/12/20 09:50:54;;;;;;;4.00;3.80;;;6.00;97.30;;;;;;4969517;28;20282;-89
2022/12/20 09:53:42;;;;;;;5.83;4.07;;;6.00;97.30;;;;;;4976098;28;20425;-89
2022/12/20 09:56:31;;;;;;;19.53;5.03;;;6.10;97.30;;;;;;4991744;28;20417;-89
2022/12/20 09:59:13;;;;;;;6.57;5.13;;;6.10;97.30;;;;;;4974826;28;20433;-89
2022/12/20 10:01:44;;;;;;;14.83;5.67;;;6.10;97.30;;;;;;4964340;28;20448;-88
2022/12/20 10:04:30;;;;;;;1.37;1.27;;;6.10;97.30;;;;;;4975353;28;20963;-89
2022/12/20 10:07:26;;;;;;;4.90;2.90;;;6.10;97.30;;;;;;4966721;28;20507;-89
2022/12/20 10:10:11;;;;;;;5.03;4.43;;;6.20;97.30;;;;;;4987333;28;20878;-91
2022/12/20 10:12:46;;;;;;;3.77;2.90;;;6.20;97.30;;;;;;4967802;28;20547;-90
2022/12/20 10:15:30;;;;;;;7.53;4.97;;;6.30;97.30;;;;;;4983782;28;20425;-88
2022/12/20 10:18:31;;;;;;;6.27;3.20;;;6.40;97.30;;;;;;4966807;28;20529;-90
2022/12/20 10:21:07;;;;;;;9.10;2.70;;;6.40;97.30;;;;;;4972102;28;20441;-90
2022/12/20 10:23:42;;;;;;;11.50;3.40;;;6.50;97.30;;;;;;4977323;28;20417;-90
2022/12/20 10:26:11;;;;;;;4.40;2.30;;;6.50;97.30;;;;;;4962670;28;20489;-90
2022/12/20 10:28:37;;;;;;;4.83;3.63;;;6.50;97.30;;;;;;4964335;28;20425;-90
2022/12/20 10:31:11;;;;;;;7.77;3.40;;;6.60;97.30;;;;;;4976106;28;20874;-88
2022/12/20 10:33:36;;;;;;;3.40;1.50;;;6.60;97.30;;;;;;4966020;28;20430;-90
2022/12/20 10:36:17;;;;;;;2.30;2.13;;;6.60;97.30;;;;;;4966583;28;20426;-90
2022/12/20 10:38:46;;;;;;;8.20;3.67;;;6.60;97.30;;;;;;4978114;28;20197;-90
2022/12/20 10:41:47;;;;;;;1.67;1.50;;;6.70;97.30;;;;;;4959783;28;20442;-90
2022/12/20 10:44:29;;;;;;;10.73;3.57;;;6.70;97.30;;;;;;4972585;28;20421;-90
2022/12/20 10:46:57;;;;;;;5.07;3.70;;;6.70;97.30;;;;;;4968461;28;20464;-91
2022/12/20 10:49:33;;;;;;;5.63;4.27;;;6.70;97.30;;;;;;4975516;28;20484;-90
2022/12/20 10:52:06;;;;;;;5.93;2.13;;;6.70;97.30;;;;;;4972515;28;20551;-91
2022/12/20 10:54:33;;;;;;;3.00;2.47;;;6.80;97.30;;;;;;4971498;28;20544;-90
2022/12/20 10:57:01;;;;;;;2.87;2.73;;;6.80;97.30;;;;;;4968796;28;20794;-90
2022/12/20 10:59:30;;;;;;;4.70;3.83;;;6.90;97.30;;;;;;4975584;28;20416;-90
2022/12/20 11:01:56;;;;;;;3.17;2.87;;;6.90;97.30;;;;;;4972347;28;20485;-91
2022/12/20 11:04:34;;;;;;;2.60;2.40;;;7.00;97.30;;;;;;4966973;28;20926;-90
2022/12/20 11:07:03;;;;;;;2.47;2.07;;;7.00;97.30;;;;;;4968696;28;20213;-91
2022/12/20 11:09:34;;;;;;;3.27;3.07;;;7.10;97.30;;;;;;4992221;28;20522;-90
2022/12/20 11:12:13;;;;;;;4.20;2.10;;;7.10;97.30;;;;;;4971848;28;20587;-90
2022/12/20 11:14:40;;;;;;;5.33;2.80;;;7.10;97.30;;;;;;4974233;28;20424;-90
2022/12/20 11:17:18;;;;;;;3.73;2.27;;;7.20;97.30;;;;;;4975277;28;20421;-90
2022/12/20 11:20:00;;;;;;;3.30;3.10;;;7.20;97.30;;;;;;4965492;28;20420;-90
2022/12/20 11:22:40;;;;;;;4.13;2.70;;;7.30;97.30;;;;;;4974889;28;20574;-90
2022/12/20 11:25:47;;;;;;;5.43;3.97;;;7.30;97.30;;;;;;4974449;28;20431;-90
2022/12/20 11:28:40;;;;;;;4.47;2.87;;;7.30;97.30;;;;;;4973371;28;20432;-90
2022/12/20 11:31:21;;;;;;;2.13;2.00;;;7.30;97.30;;;;;;4966502;28;20441;-90
2022/12/20 11:34:12;;;;;;;5.80;3.10;;;7.30;97.30;;;;;;4963626;28;20417;-90
2022/12/20 11:36:57;;;;;;;6.30;3.60;;;7.30;97.30;;;;;;4973913;28;20416;-90
2022/12/20 11:39:44;;;;;;;6.87;3.07;;;7.30;97.30;;;;;;4975336;28;20431;-90
2022/12/20 11:42:24;;;;;;;3.97;3.17;;;7.30;97.30;;;;;;4972825;28;20475;-90
2022/12/20 11:45:08;;;;;;;3.93;2.57;;;7.30;97.30;;;;;;4974420;28;20421;-90
2022/12/20 11:47:37;;;;;;;11.07;4.10;;;7.30;97.30;;;;;;4974755;28;20974;-90
2022/12/20 11:50:21;;;;;;;4.57;4.30;;;7.30;97.30;;;;;;4974836;28;20414;-90
2022/12/20 11:52:58;;;;;;;4.00;3.00;;;7.30;97.30;;;;;;5008747;23;20575;-86
2022/12/20 11:55:33;;;;;;;3.07;2.90;;;7.30;97.30;;;;;;4996860;28;20416;-86
2022/12/20 11:58:29;;;;;;;6.90;3.23;;;7.20;97.30;;;;;;5030598;28;20835;-86
2022/12/20 12:01:05;;;;;;;4.87;4.60;;;7.20;97.30;;;;;;4996937;28;20486;-86
2022/12/20 12:03:37;;;;;;;4.50;2.60;;;7.20;97.30;;;;;;4981522;28;20439;-87
2022/12/20 12:06:16;;;;;;;5.50;2.50;;;7.20;97.30;;;;;;5008411;28;20468;-86
2022/12/20 12:08:57;;;;;;;4.77;3.83;;;7.20;97.30;;;;;;5016424;28;20428;-87
2022/12/20 12:11:26;;;;;;;2.60;2.40;;;7.20;97.30;;;;;;5017348;28;20431;-87
2022/12/20 12:13:53;;;;;;;13.33;5.70;;;7.20;97.30;;;;;;5017150;28;20424;-86
2022/12/20 12:16:26;;;;;;;5.63;3.87;;;7.10;97.30;;;;;;5006665;28;20477;-87
2022/12/20 12:18:52;;;;;;;4.07;2.73;;;7.10;97.30;;;;;;5012624;28;20417;-87
2022/12/20 12:21:27;;;;;;;3.63;2.60;;;7.00;97.30;;;;;;5009182;28;20459;-87
2022/12/20 12:23:55;;;;;;;6.53;3.90;;;7.00;97.30;;;;;;5004001;28;20181;-87
2022/12/20 12:26:28;;;;;;;5.80;3.70;;;7.00;97.30;;;;;;5013673;28;20562;-87
2022/12/20 12:29:08;;;;;;;3.33;1.93;;;7.00;97.30;;;;;;5006423;28;20421;-87
2022/12/20 12:31:52;;;;;;;3.47;2.70;;;7.00;97.30;;;;;;5020679;28;20444;-87
2022/12/20 12:34:32;;;;;;;7.10;4.50;;;7.00;97.30;;;;;;4996044;28;20412;-87
2022/12/20 12:37:22;;;;;;;2.70;1.57;;;7.00;97.30;;;;;;5008515;28;20411;-87
2022/12/20 12:40:17;;;;;;;4.70;4.00;;;7.00;97.30;;;;;;5005570;28;20428;-87
2022/12/20 12:43:16;;;;;;;5.97;3.60;;;7.00;97.30;;;;;;5011665;28;20449;-87
2022/12/20 12:45:46;;;;;;;4.23;2.73;;;7.00;97.30;;;;;;5001791;28;20523;-87
2022/12/20 12:48:23;;;;;;;9.93;3.40;;;7.00;97.30;;;;;;5006232;28;20495;-87
2022/12/20 12:50:55;;;;;;;12.33;5.00;;;7.00;97.30;;;;;;5021361;28;20547;-86
2022/12/20 12:53:44;;;;;;;2.87;2.67;;;7.00;97.30;;;;;;5004485;28;20511;-87
2022/12/20 12:56:25;;;;;;;1.80;1.80;;;7.00;97.30;;;;;;5001565;28;20422;-87
2022/12/20 12:59:08;;;;;;;6.10;3.53;;;7.00;97.30;;;;;;5001515;28;20424;-87
2022/12/20 13:02:14;;;;;;;2.30;2.10;;;7.00;97.30;;;;;;5002821;28;20496;-87
2022/12/20 13:04:59;;;;;;;14.20;6.33;;;7.00;97.30;;;;;;5019752;28;20443;-87
2022/12/20 13:07:31;;;;;;;2.47;2.23;;;7.00;97.30;;;;;;5019946;28;20636;-86
2022/12/20 13:09:58;;;;;;;7.13;3.30;;;7.00;97.30;;;;;;5009052;28;20423;-85
2022/12/20 13:12:35;;;;;;;10.67;3.90;;;7.10;97.30;;;;;;5000901;28;21062;-86
2022/12/20 13:15:20;;;;;;;4.77;4.00;;;7.10;97.30;;;;;;4995626;28;20420;-86
2022/12/20 13:17:50;;;;;;;13.40;2.67;;;7.00;97.30;;;;;;4993881;28;20551;-86
2022/12/20 13:20:21;;;;;;;3.80;2.33;;;7.10;97.30;;;;;;4985425;28;20436;-86